Time;durP1;ratioP1;P1;durP2;ratioP2;P2;SDS_P1;SDS_P2;PMS_P1;PMS_P2;Temp;Humidity;BMP_temperature;BMP_pressure;BME280_temperature;BME280_humidity;BME280_pressure;Samples;Min_cycle;Max_cycle;Signal;HPM_P1;HPM_P2
2022/10/16 00:03:09;;;;;;;;;;;;;;;;;;10498604;28;19933;-62
2022/10/16 00:08:11;;;;;;;;;;;;;;;;;;10498511;28;19933;-62
2022/10/16 00:13:13;;;;;;;;;;;;;;;;;;10496806;28;19978;-62
2022/10/16 00:18:15;;;;;;;;;;;;;;;;;;10498825;28;19978;-61
2022/10/16 00:23:17;;;;;;;;;;;;;;;;;;10497638;28;20338;-62
2022/10/16 00:28:19;;;;;;;;;;;;;;;;;;10504099;28;20014;-62
2022/10/16 00:33:21;;;;;;;;;;;;;;;;;;10506162;28;19931;-62
2022/10/16 00:38:23;;;;;;;;;;;;;;;;;;10505787;28;19970;-62
2022/10/16 00:43:25;;;;;;;;;;;;;;;;;;10504188;28;20433;-61
2022/10/16 00:48:27;;;;;;;;;;;;;;;;;;10504742;28;19932;-62
2022/10/16 00:53:29;;;;;;;;;;;;;;;;;;10504582;28;19970;-61
2022/10/16 00:58:31;;;;;;;;;;;;;;;;;;10504150;28;19924;-62
2022/10/16 01:03:33;;;;;;;;;;;;;;;;;;10503972;28;19964;-61
2022/10/16 01:08:35;;;;;;;;;;;;;;;;;;10504084;28;20364;-62
2022/10/16 01:13:37;;;;;;;;;;;;;;;;;;10504600;28;19925;-62
2022/10/16 01:18:39;;;;;;;;;;;;;;;;;;10502976;28;20345;-62
2022/10/16 01:23:42;;;;;;;;;;;;;;;;;;10503464;28;19925;-62
2022/10/16 01:28:44;;;;;;;;;;;;;;;;;;10501605;28;19925;-62
2022/10/16 01:33:46;;;;;;;;;;;;;;;;;;10503872;28;19967;-62
2022/10/16 01:38:48;;;;;;;;;;;;;;;;;;10501536;28;20298;-62
2022/10/16 01:43:50;;;;;;;;;;;;;;;;;;10503576;28;19925;-61
2022/10/16 01:48:52;;;;;;;;;;;;;;;;;;10501494;28;19928;-61
2022/10/16 01:53:54;;;;;;;;;;;;;;;;;;10503142;28;19978;-62
2022/10/16 01:58:56;;;;;;;;;;;;;;;;;;10502054;28;19962;-62
2022/10/16 02:03:58;;;;;;;;;;;;;;;;;;10502040;28;19924;-62
2022/10/16 02:09:00;;;;;;;;;;;;;;;;;;10498710;28;20360;-62
2022/10/16 02:14:02;;;;;;;;;;;;;;;;;;10502202;28;19974;-62
2022/10/16 02:19:04;;;;;;;;;;;;;;;;;;10500485;28;20441;-61
2022/10/16 02:24:07;;;;;;;;;;;;;;;;;;10500990;28;19932;-61
2022/10/16 02:29:09;;;;;;;;;;;;;;;;;;10499983;28;20405;-62
2022/10/16 02:34:11;;;;;;;;;;;;;;;;;;10501378;28;19928;-61
2022/10/16 02:39:13;;;;;;;;;;;;;;;;;;10499548;28;20268;-61
2022/10/16 02:44:15;;;;;;;;;;;;;;;;;;10498434;28;19928;-61
2022/10/16 02:49:18;;;;;;;;;;;;;;;;;;10498159;28;19970;-62
2022/10/16 02:54:20;;;;;;;;;;;;;;;;;;10500329;28;19928;-62
2022/10/16 02:59:22;;;;;;;;;;;;;;;;;;10465526;28;19925;-62
2022/10/16 03:04:24;;;;;;;;;;;;;;;;;;10498836;28;19982;-62
2022/10/16 03:09:26;;;;;;;;;;;;;;;;;;10499037;28;19928;-62
2022/10/16 03:14:28;;;;;;;;;;;;;;;;;;10499820;28;19974;-62
2022/10/16 03:19:30;;;;;;;;;;;;;;;;;;10498110;28;20337;-62
2022/10/16 03:24:32;;;;;;;;;;;;;;;;;;10499509;28;19928;-61
2022/10/16 03:29:34;;;;;;;;;;;;;;;;;;10498412;28;19928;-62
2022/10/16 03:34:36;;;;;;;;;;;;;;;;;;10497830;28;20282;-62
2022/10/16 03:39:38;;;;;;;;;;;;;;;;;;10498201;28;19925;-62
2022/10/16 03:44:40;;;;;;;;;;;;;;;;;;10497740;28;20462;-61
2022/10/16 03:49:42;;;;;;;;;;;;;;;;;;10497256;28;19977;-62
2022/10/16 03:54:44;;;;;;;;;;;;;;;;;;10498813;28;19928;-62
2022/10/16 03:59:46;;;;;;;;;;;;;;;;;;10499344;28;19928;-62
2022/10/16 04:04:48;;;;;;;;;;;;;;;;;;10512433;28;19928;-62
2022/10/16 04:09:52;;;;;;;;;;;;;;;;;;10510798;28;20364;-61
2022/10/16 04:14:54;;;;;;;;;;;;;;;;;;10511598;28;19970;-61
2022/10/16 04:19:56;;;;;;;;;;;;;;;;;;10510396;28;19978;-61
2022/10/16 04:24:58;;;;;;;;;;;;;;;;;;10512027;28;19978;-61
2022/10/16 04:30:00;;;;;;;;;;;;;;;;;;10510269;28;19980;-61
2022/10/16 04:35:02;;;;;;;;;;;;;;;;;;10511034;28;19951;-61
2022/10/16 04:40:04;;;;;;;;;;;;;;;;;;10509303;28;19958;-61
2022/10/16 04:45:07;;;;;;;;;;;;;;;;;;10510204;28;19924;-61
2022/10/16 04:50:12;;;;;;;;;;;;;;;;;;10510558;28;19978;-61
2022/10/16 04:55:15;;;;;;;;;;;;;;;;;;10508656;28;19928;-62
2022/10/16 05:00:17;;;;;;;;;;;;;;;;;;10484468;28;19929;-61
2022/10/16 05:05:19;;;;;;;;;;;;;;;;;;10492671;28;19925;-61
2022/10/16 05:10:21;;;;;;;;;;;;;;;;;;10509521;28;19925;-61
2022/10/16 05:15:24;;;;;;;;;;;;;;;;;;10502427;28;19928;-61
2022/10/16 05:20:26;;;;;;;;;;;;;;;;;;10501997;28;19928;-61
2022/10/16 05:25:28;;;;;;;;;;;;;;;;;;10502815;28;19994;-62
2022/10/16 05:30:31;;;;;;;;;;;;;;;;;;10503969;28;19924;-61
2022/10/16 05:35:33;;;;;;;;;;;;;;;;;;10501583;28;19925;-61
2022/10/16 05:40:35;;;;;;;;;;;;;;;;;;10501105;28;19932;-61
2022/10/16 05:45:37;;;;;;;;;;;;;;;;;;10502163;28;20425;-61
2022/10/16 05:50:39;;;;;;;;;;;;;;;;;;10502397;28;19986;-61
2022/10/16 05:55:41;;;;;;;;;;;;;;;;;;10501762;28;19925;-61
2022/10/16 06:00:43;;;;;;;;;;;;;;;;;;10501165;28;20441;-61
2022/10/16 06:05:45;;;;;;;;;;;;;;;;;;10501008;28;20353;-61
2022/10/16 06:10:47;;;;;;;;;;;;;;;;;;10502372;28;19925;-61
2022/10/16 06:15:49;;;;;;;;;;;;;;;;;;10501290;28;19924;-61
2022/10/16 06:20:51;;;;;;;;;;;;;;;;;;10501996;28;19924;-62
2022/10/16 06:25:53;;;;;;;;;;;;;;;;;;10500928;28;19947;-61
2022/10/16 06:30:55;;;;;;;;;;;;;;;;;;10500827;28;20322;-62
2022/10/16 06:35:57;;;;;;;;;;;;;;;;;;10499713;28;19970;-61
2022/10/16 06:40:59;;;;;;;;;;;;;;;;;;10501013;28;19951;-61
2022/10/16 06:46:01;;;;;;;;;;;;;;;;;;10458644;28;19931;-62
2022/10/16 06:51:03;;;;;;;;;;;;;;;;;;10499906;28;20434;-61
2022/10/16 06:56:10;;;;;;;;;;;;;;;;;;10498088;28;19924;-62
2022/10/16 07:01:12;;;;;;;;;;;;;;;;;;10500255;28;19924;-61
2022/10/16 07:06:14;;;;;;;;;;;;;;;;;;10497892;28;19970;-62
2022/10/16 07:11:16;;;;;;;;;;;;;;;;;;10499874;28;19978;-62
2022/10/16 07:16:18;;;;;;;;;;;;;;;;;;10496574;28;20382;-62
2022/10/16 07:21:20;;;;;;;;;;;;;;;;;;10499028;28;19924;-62
2022/10/16 07:26:23;;;;;;;;;;;;;;;;;;10497795;28;19924;-62
2022/10/16 07:31:25;;;;;;;;;;;;;;;;;;10498485;28;19925;-62
2022/10/16 07:36:27;;;;;;;;;;;;;;;;;;10496508;28;20341;-62
2022/10/16 07:41:29;;;;;;;;;;;;;;;;;;10499285;28;19938;-65
2022/10/16 07:46:33;;;;;;;;;;;;;;;;;;10497933;28;19974;-62
2022/10/16 07:51:35;;;;;;;;;;;;;;;;;;10498814;28;19928;-62
2022/10/16 07:56:37;;;;;;;;;;;;;;;;;;10495696;28;20453;-62
2022/10/16 08:01:42;;;;;;;;;;;;;;;;;;10498683;28;19928;-62
2022/10/16 08:06:44;;;;;;;;;;;;;;;;;;10496999;28;20020;-62
2022/10/16 08:11:46;;;;;;;;;;;;;;;;;;10498439;28;19974;-62
2022/10/16 08:16:48;;;;;;;;;;;;;;;;;;10496483;28;19924;-62
2022/10/16 08:21:50;;;;;;;;;;;;;;;;;;10502514;28;19950;-63
2022/10/16 08:26:52;;;;;;;;;;;;;;;;;;10525692;28;20346;-62
2022/10/16 08:31:55;;;;;;;;;;;;;;;;;;10497426;28;19928;-62
2022/10/16 08:36:57;;;;;;;;;;;;;;;;;;10496300;28;19970;-62
2022/10/16 08:41:59;;;;;;;;;;;;;;;;;;10496321;28;19970;-63
2022/10/16 08:47:01;;;;;;;;;;;;;;;;;;10499430;28;19924;-63
2022/10/16 08:52:03;;;;;;;;;;;;;;;;;;10503894;28;20268;-62
2022/10/16 08:57:05;;;;;;;;;;;;;;;;;;10505339;28;19928;-63
2022/10/16 09:02:07;;;;;;;;;;;;;;;;;;10505105;28;19932;-63
2022/10/16 09:07:09;;;;;;;;;;;;;;;;;;10503382;28;19924;-63
2022/10/16 09:12:11;;;;;;;;;;;;;;;;;;10504630;28;19925;-63
2022/10/16 09:17:13;;;;;;;;;;;;;;;;;;10504601;28;19924;-63
2022/10/16 09:22:16;;;;;;;;;;;;;;;;;;10502591;28;19928;-63
2022/10/16 09:27:18;;;;;;;;;;;;;;;;;;10504405;28;19955;-63
2022/10/16 09:32:20;;;;;;;;;;;;;;;;;;10503876;28;19925;-63
2022/10/16 09:37:22;;;;;;;;;;;;;;;;;;10502664;28;19925;-63
2022/10/16 09:42:24;;;;;;;;;;;;;;;;;;10502928;28;19925;-64
2022/10/16 09:47:26;;;;;;;;;;;;;;;;;;10502931;28;19974;-64
2022/10/16 09:52:28;;;;;;;;;;;;;;;;;;10502220;28;19925;-64
2022/10/16 09:57:30;;;;;;;;;;;;;;;;;;10501884;28;20371;-64
2022/10/16 10:02:32;;;;;;;;;;;;;;;;;;10502984;28;19925;-64
2022/10/16 10:07:34;;;;;;;;;;;;;;;;;;10500806;28;19928;-65
2022/10/16 10:12:37;;;;;;;;;;;;;;;;;;10501730;28;19928;-65
2022/10/16 10:17:39;;;;;;;;;;;;;;;;;;10501032;28;19932;-65
2022/10/16 10:22:42;;;;;;;;;;;;;;;;;;10501820;28;19925;-65
2022/10/16 10:27:44;;;;;;;;;;;;;;;;;;10500149;28;19994;-64
2022/10/16 10:32:46;;;;;;;;;;;;;;;;;;10499459;28;19929;-65
2022/10/16 10:37:48;;;;;;;;;;;;;;;;;;10499493;28;19925;-65
2022/10/16 10:42:50;;;;;;;;;;;;;;;;;;10500360;28;20326;-64
2022/10/16 10:47:52;;;;;;;;;;;;;;;;;;10497990;28;19929;-65
2022/10/16 10:52:54;;;;;;;;;;;;;;;;;;10500505;28;19931;-65
2022/10/16 10:57:56;;;;;;;;;;;;;;;;;;10498781;28;19929;-65
2022/10/16 11:02:58;;;;;;;;;;;;;;;;;;10499777;28;20371;-65
2022/10/16 11:08:00;;;;;;;;;;;;;;;;;;10498574;28;19925;-65
2022/10/16 11:13:02;;;;;;;;;;;;;;;;;;10498601;28;19990;-65
2022/10/16 11:18:04;;;;;;;;;;;;;;;;;;10498128;28;19970;-65
2022/10/16 11:23:06;;;;;;;;;;;;;;;;;;10497954;28;21740;-65
2022/10/16 11:28:08;;;;;;;;;;;;;;;;;;10497316;28;19928;-65
2022/10/16 11:33:10;;;;;;;;;;;;;;;;;;10495819;28;19928;-65
2022/10/16 11:38:13;;;;;;;;;;;;;;;;;;10496905;28;19925;-65
2022/10/16 11:43:15;;;;;;;;;;;;;;;;;;10496806;28;19932;-65
2022/10/16 11:48:17;;;;;;;;;;;;;;;;;;10496819;28;19924;-66
2022/10/16 11:53:19;;;;;;;;;;;;;;;;;;10471413;28;20364;-66
2022/10/16 11:58:22;;;;;;;;;;;;;;;;;;10455291;28;19975;-66
2022/10/16 12:03:24;;;;;;;;;;;;;;;;;;10487820;23;19931;-65
2022/10/16 12:08:26;;;;;;;;;;;;;;;;;;10498169;28;19995;-65
2022/10/16 12:13:29;;;;;;;;;;;;;;;;;;10497942;28;20433;-65
2022/10/16 12:18:31;;;;;;;;;;;;;;;;;;10498379;28;19970;-65
2022/10/16 12:23:33;;;;;;;;;;;;;;;;;;10503941;28;19978;-65
2022/10/16 12:28:36;;;;;;;;;;;;;;;;;;10506553;28;19924;-66
2022/10/16 12:33:38;;;;;;;;;;;;;;;;;;10506384;28;19928;-65
2022/10/16 12:38:40;;;;;;;;;;;;;;;;;;10506107;28;19924;-65
2022/10/16 12:43:42;;;;;;;;;;;;;;;;;;10502392;28;19924;-64
2022/10/16 12:48:45;;;;;;;;;;;;;;;;;;10504880;28;20367;-64
2022/10/16 12:54:07;;;;;;;;;;;;;;;;;;10504921;28;19950;-64
2022/10/16 12:59:09;;;;;;;;;;;;;;;;;;10501273;28;19924;-64
2022/10/16 13:04:11;;;;;;;;;;;;;;;;;;10504690;28;19928;-65
2022/10/16 13:09:13;;;;;;;;;;;;;;;;;;10504777;28;19925;-65
2022/10/16 13:14:15;;;;;;;;;;;;;;;;;;10504724;28;19925;-65
2022/10/16 13:19:17;;;;;;;;;;;;;;;;;;10504032;28;19932;-64
2022/10/16 13:24:20;;;;;;;;;;;;;;;;;;10491520;28;19929;-64
2022/10/16 13:29:22;;;;;;;;;;;;;;;;;;10421560;28;19925;-64
2022/10/16 13:34:24;;;;;;;;;;;;;;;;;;10419895;28;19995;-64
2022/10/16 13:39:26;;;;;;;;;;;;;;;;;;10421228;28;19925;-64
2022/10/16 13:44:28;;;;;;;;;;;;;;;;;;10435690;28;20452;-64
2022/10/16 13:49:30;;;;;;;;;;;;;;;;;;10420739;28;19925;-64
2022/10/16 13:54:32;;;;;;;;;;;;;;;;;;10420862;28;19987;-64
2022/10/16 13:59:34;;;;;;;;;;;;;;;;;;10419897;28;19925;-64
2022/10/16 14:04:36;;;;;;;;;;;;;;;;;;10457694;28;19924;-65
2022/10/16 14:09:39;;;;;;;;;;;;;;;;;;10502460;28;19928;-64
2022/10/16 14:14:41;;;;;;;;;;;;;;;;;;10502451;28;20007;-64
2022/10/16 14:19:43;;;;;;;;;;;;;;;;;;10501521;28;20337;-64
2022/10/16 14:24:45;;;;;;;;;;;;;;;;;;10501993;28;19924;-64
2022/10/16 14:29:47;;;;;;;;;;;;;;;;;;10501070;28;20375;-64
2022/10/16 14:34:49;;;;;;;;;;;;;;;;;;10501546;28;19924;-62
2022/10/16 14:39:51;;;;;;;;;;;;;;;;;;10489183;28;19951;-62
2022/10/16 14:44:53;;;;;;;;;;;;;;;;;;10459248;28;19979;-63
2022/10/16 14:49:58;;;;;;;;;;;;;;;;;;10460256;28;19936;-61
2022/10/16 14:55:00;;;;;;;;;;;;;;;;;;10459452;28;19978;-62
2022/10/16 15:00:02;;;;;;;;;;;;;;;;;;10486521;28;19994;-62
2022/10/16 15:05:04;;;;;;;;;;;;;;;;;;10498756;28;19925;-62
2022/10/16 15:10:06;;;;;;;;;;;;;;;;;;10467479;28;19978;-62
2022/10/16 15:15:08;;;;;;;;;;;;;;;;;;10458795;28;20303;-61
2022/10/16 15:20:10;;;;;;;;;;;;;;;;;;10461092;28;20334;-70
2022/10/16 15:25:12;;;;;;;;;;;;;;;;;;10461038;28;19925;-71
2022/10/16 15:30:14;;;;;;;;;;;;;;;;;;10472254;28;19932;-71
2022/10/16 15:35:16;;;;;;;;;;;;;;;;;;10458124;28;19928;-71
2022/10/16 15:40:18;;;;;;;;;;;;;;;;;;10457325;28;20398;-71
2022/10/16 15:45:20;;;;;;;;;;;;;;;;;;10466113;28;19978;-71
2022/10/16 15:50:22;;;;;;;;;;;;;;;;;;10469210;28;19925;-71
2022/10/16 15:55:24;;;;;;;;;;;;;;;;;;10457042;28;19971;-71
2022/10/16 16:00:27;;;;;;;;;;;;;;;;;;10458775;28;19963;-71
2022/10/16 16:05:29;;;;;;;;;;;;;;;;;;10490966;28;20341;-71
2022/10/16 16:10:31;;;;;;;;;;;;;;;;;;10497183;28;19924;-71
2022/10/16 16:15:33;;;;;;;;;;;;;;;;;;10498936;28;19971;-70
2022/10/16 16:20:35;;;;;;;;;;;;;;;;;;10496089;28;19954;-71
2022/10/16 16:25:37;;;;;;;;;;;;;;;;;;10497653;28;19925;-70
2022/10/16 16:30:39;;;;;;;;;;;;;;;;;;10497321;28;19982;-71
2022/10/16 16:35:41;;;;;;;;;;;;;;;;;;10498112;28;19925;-70
2022/10/16 16:40:43;;;;;;;;;;;;;;;;;;10494560;28;19928;-71
2022/10/16 16:45:45;;;;;;;;;;;;;;;;;;10494824;28;20264;-70
2022/10/16 16:50:47;;;;;;;;;;;;;;;;;;10497264;28;19924;-70
2022/10/16 16:55:49;;;;;;;;;;;;;;;;;;10496782;28;20552;-70
2022/10/16 17:00:51;;;;;;;;;;;;;;;;;;10496884;28;19939;-71
2022/10/16 17:05:58;;;;;;;;;;;;;;;;;;10496953;28;19924;-71
2022/10/16 17:11:00;;;;;;;;;;;;;;;;;;10503706;28;19929;-70
2022/10/16 17:16:02;;;;;;;;;;;;;;;;;;10504174;28;19947;-71
2022/10/16 17:21:04;;;;;;;;;;;;;;;;;;10499733;28;19932;-71
2022/10/16 17:26:06;;;;;;;;;;;;;;;;;;10502469;28;19950;-70
2022/10/16 17:31:08;;;;;;;;;;;;;;;;;;10502261;28;19955;-70
2022/10/16 17:36:15;;;;;;;;;;;;;;;;;;10500972;28;19929;-70
2022/10/16 17:41:17;;;;;;;;;;;;;;;;;;10485449;28;19970;-71
2022/10/16 17:46:19;;;;;;;;;;;;;;;;;;10501987;28;19978;-70
2022/10/16 17:51:21;;;;;;;;;;;;;;;;;;10501708;28;19971;-70
2022/10/16 17:56:24;;;;;;;;;;;;;;;;;;10501798;28;19925;-70
2022/10/16 18:01:26;;;;;;;;;;;;;;;;;;10500591;28;19940;-70
2022/10/16 18:06:28;;;;;;;;;;;;;;;;;;10501216;28;19932;-70
2022/10/16 18:11:30;;;;;;;;;;;;;;;;;;10497966;28;20333;-70
2022/10/16 18:16:32;;;;;;;;;;;;;;;;;;10501698;28;19925;-71
2022/10/16 18:21:34;;;;;;;;;;;;;;;;;;10501807;28;19925;-70
2022/10/16 18:26:36;;;;;;;;;;;;;;;;;;10499366;28;19932;-70
2022/10/16 18:31:40;;;;;;;;;;;;;;;;;;10501682;28;19924;-70
2022/10/16 18:36:43;;;;;;;;;;;;;;;;;;10501489;28;20543;-70
2022/10/16 18:41:46;;;;;;;;;;;;;;;;;;10482480;28;20178;-70
2022/10/16 18:46:49;;;;;;;;;;;;;;;;;;10499266;28;19924;-70
2022/10/16 18:51:55;;;;;;;;;;;;;;;;;;10499892;28;19982;-70
2022/10/16 18:56:57;;;;;;;;;;;;;;;;;;10507699;28;19950;-70
2022/10/16 19:01:59;;;;;;;;;;;;;;;;;;10505426;28;19928;-70
2022/10/16 19:07:02;;;;;;;;;;;;;;;;;;10499198;28;19931;-70
2022/10/16 19:12:04;;;;;;;;;;;;;;;;;;10499097;28;19978;-68
2022/10/16 19:17:06;;;;;;;;;;;;;;;;;;10499422;28;20448;-68
2022/10/16 19:22:13;;;;;;;;;;;;;;;;;;10498621;28;19924;-68
2022/10/16 19:27:15;;;;;;;;;;;;;;;;;;10501156;28;19970;-68
2022/10/16 19:32:17;;;;;;;;;;;;;;;;;;10497156;28;20291;-68
2022/10/16 19:37:24;;;;;;;;;;;;;;;;;;10498398;28;19928;-67
2022/10/16 19:42:26;;;;;;;;;;;;;;;;;;10499180;28;19924;-67
2022/10/16 19:47:28;;;;;;;;;;;;;;;;;;10497519;28;20390;-67
2022/10/16 19:52:31;;;;;;;;;;;;;;;;;;10498950;28;19925;-66
2022/10/16 19:57:33;;;;;;;;;;;;;;;;;;10497675;28;20275;-66
2022/10/16 20:02:36;;;;;;;;;;;;;;;;;;10496921;28;20393;-66
2022/10/16 20:07:38;;;;;;;;;;;;;;;;;;10495806;28;19924;-66
2022/10/16 20:12:41;;;;;;;;;;;;;;;;;;10496277;28;20333;-66
2022/10/16 20:17:43;;;;;;;;;;;;;;;;;;10495123;28;20260;-67
2022/10/16 20:22:45;;;;;;;;;;;;;;;;;;10495511;28;20379;-67
2022/10/16 20:27:47;;;;;;;;;;;;;;;;;;10496851;28;19978;-67
2022/10/16 20:32:49;;;;;;;;;;;;;;;;;;10496462;28;20276;-67
2022/10/16 20:37:52;;;;;;;;;;;;;;;;;;10498153;28;19925;-67
2022/10/16 20:42:54;;;;;;;;;;;;;;;;;;10499729;28;19924;-67
2022/10/16 20:47:56;;;;;;;;;;;;;;;;;;10505929;28;19924;-67
2022/10/16 20:52:58;;;;;;;;;;;;;;;;;;10504873;28;19925;-67
2022/10/16 20:58:00;;;;;;;;;;;;;;;;;;10503781;28;20371;-67
2022/10/16 21:03:02;;;;;;;;;;;;;;;;;;10503705;28;19924;-67
2022/10/16 21:08:04;;;;;;;;;;;;;;;;;;10503884;28;19925;-67
2022/10/16 21:13:06;;;;;;;;;;;;;;;;;;10503986;28;20397;-67
2022/10/16 21:18:08;;;;;;;;;;;;;;;;;;10503295;28;19940;-67
2022/10/16 21:23:10;;;;;;;;;;;;;;;;;;10497707;28;19932;-67
2022/10/16 21:28:12;;;;;;;;;;;;;;;;;;10501010;28;19926;-67
2022/10/16 21:33:14;;;;;;;;;;;;;;;;;;10479937;28;19993;-67
2022/10/16 21:38:16;;;;;;;;;;;;;;;;;;10521422;28;19970;-67
2022/10/16 21:43:18;;;;;;;;;;;;;;;;;;10499475;28;19978;-67
2022/10/16 21:48:20;;;;;;;;;;;;;;;;;;10516298;28;20364;-67
2022/10/16 21:53:22;;;;;;;;;;;;;;;;;;10531538;28;19978;-67
2022/10/16 21:58:24;;;;;;;;;;;;;;;;;;10499770;28;19928;-67
2022/10/16 22:03:26;;;;;;;;;;;;;;;;;;10515246;28;19986;-67
2022/10/16 22:08:29;;;;;;;;;;;;;;;;;;10530443;28;20337;-67
2022/10/16 22:13:31;;;;;;;;;;;;;;;;;;10506288;28;19928;-67
2022/10/16 22:18:33;;;;;;;;;;;;;;;;;;10514737;28;20334;-67
2022/10/16 22:23:35;;;;;;;;;;;;;;;;;;10510714;28;19936;-67
2022/10/16 22:28:37;;;;;;;;;;;;;;;;;;10522591;28;19924;-67
2022/10/16 22:33:39;;;;;;;;;;;;;;;;;;10503158;28;19931;-67
2022/10/16 22:38:41;;;;;;;;;;;;;;;;;;10506658;28;19924;-67
2022/10/16 22:43:43;;;;;;;;;;;;;;;;;;10504293;28;20337;-67
2022/10/16 22:48:46;;;;;;;;;;;;;;;;;;10517388;28;19924;-67
2022/10/16 22:53:48;;;;;;;;;;;;;;;;;;10516004;28;19923;-67
2022/10/16 22:58:50;;;;;;;;;;;;;;;;;;10521313;28;19975;-67
2022/10/16 23:03:52;;;;;;;;;;;;;;;;;;10506507;28;20042;-67
2022/10/16 23:08:54;;;;;;;;;;;;;;;;;;10516381;28;19969;-67
2022/10/16 23:13:56;;;;;;;;;;;;;;;;;;10514923;28;19951;-67
2022/10/16 23:18:58;;;;;;;;;;;;;;;;;;10518235;28;19924;-67
2022/10/16 23:24:00;;;;;;;;;;;;;;;;;;10499442;28;19975;-67
2022/10/16 23:29:02;;;;;;;;;;;;;;;;;;10499850;28;20337;-67
2022/10/16 23:34:04;;;;;;;;;;;;;;;;;;10523018;28;20011;-67
2022/10/16 23:39:06;;;;;;;;;;;;;;;;;;10505918;28;19978;-67
2022/10/16 23:44:08;;;;;;;;;;;;;;;;;;10521581;28;19924;-67
2022/10/16 23:49:11;;;;;;;;;;;;;;;;;;10532306;28;19928;-67
2022/10/16 23:54:13;;;;;;;;;;;;;;;;;;10501374;28;19929;-68
2022/10/16 23:59:15;;;;;;;;;;;;;;;;;;10518816;28;19970;-67
